sensor_id;sensor_type;location;lat;lon;timestamp;P1;durP1;ratioP1;P2;durP2;ratioP2
58446;SDS011;44240;51.840;7.258;2023-11-19T00:01:26;5.75;;;4.82;;
58446;SDS011;44240;51.840;7.258;2023-11-19T00:03:53;7.40;;;5.53;;
58446;SDS011;44240;51.840;7.258;2023-11-19T00:06:19;7.93;;;5.57;;
58446;SDS011;44240;51.840;7.258;2023-11-19T00:08:46;5.70;;;3.78;;
58446;SDS011;44240;51.840;7.258;2023-11-19T00:11:14;7.57;;;5.25;;
58446;SDS011;44240;51.840;7.258;2023-11-19T00:13:42;9.43;;;6.47;;
58446;SDS011;44240;51.840;7.258;2023-11-19T00:16:08;8.57;;;6.22;;
58446;SDS011;44240;51.840;7.258;2023-11-19T00:18:38;9.57;;;6.30;;
58446;SDS011;44240;51.840;7.258;2023-11-19T00:21:05;8.25;;;6.25;;
58446;SDS011;44240;51.840;7.258;2023-11-19T00:23:34;8.65;;;6.10;;
58446;SDS011;44240;51.840;7.258;2023-11-19T00:26:01;12.25;;;7.78;;
58446;SDS011;44240;51.840;7.258;2023-11-19T00:28:28;13.35;;;8.30;;
58446;SDS011;44240;51.840;7.258;2023-11-19T00:30:55;12.45;;;7.57;;
58446;SDS011;44240;51.840;7.258;2023-11-19T00:33:21;12.68;;;8.85;;
58446;SDS011;44240;51.840;7.258;2023-11-19T00:35:48;15.45;;;9.40;;
58446;SDS011;44240;51.840;7.258;2023-11-19T00:38:15;16.80;;;9.57;;
58446;SDS011;44240;51.840;7.258;2023-11-19T00:40:42;20.20;;;11.45;;
58446;SDS011;44240;51.840;7.258;2023-11-19T00:43:10;18.88;;;10.65;;
58446;SDS011;44240;51.840;7.258;2023-11-19T00:45:37;18.80;;;10.73;;
58446;SDS011;44240;51.840;7.258;2023-11-19T00:48:04;18.95;;;11.70;;
58446;SDS011;44240;51.840;7.258;2023-11-19T00:50:32;20.58;;;12.30;;
58446;SDS011;44240;51.840;7.258;2023-11-19T00:53:01;20.25;;;10.05;;
58446;SDS011;44240;51.840;7.258;2023-11-19T00:55:29;22.80;;;12.45;;
58446;SDS011;44240;51.840;7.258;2023-11-19T00:57:56;25.23;;;12.93;;
58446;SDS011;44240;51.840;7.258;2023-11-19T01:00:23;22.58;;;12.05;;
58446;SDS011;44240;51.840;7.258;2023-11-19T01:02:53;24.45;;;13.07;;
58446;SDS011;44240;51.840;7.258;2023-11-19T01:05:20;26.08;;;14.68;;
58446;SDS011;44240;51.840;7.258;2023-11-19T01:07:50;28.17;;;15.27;;
58446;SDS011;44240;51.840;7.258;2023-11-19T01:10:18;25.20;;;14.25;;
58446;SDS011;44240;51.840;7.258;2023-11-19T01:12:45;23.95;;;13.07;;
58446;SDS011;44240;51.840;7.258;2023-11-19T01:15:12;23.33;;;13.98;;
58446;SDS011;44240;51.840;7.258;2023-11-19T01:17:39;26.17;;;14.10;;
58446;SDS011;44240;51.840;7.258;2023-11-19T01:20:17;25.88;;;15.00;;
58446;SDS011;44240;51.840;7.258;2023-11-19T01:22:44;24.52;;;14.40;;
58446;SDS011;44240;51.840;7.258;2023-11-19T01:25:11;23.17;;;12.90;;
58446;SDS011;44240;51.840;7.258;2023-11-19T01:27:38;25.75;;;15.15;;
58446;SDS011;44240;51.840;7.258;2023-11-19T01:30:05;26.27;;;14.38;;
58446;SDS011;44240;51.840;7.258;2023-11-19T01:32:35;27.67;;;14.52;;
58446;SDS011;44240;51.840;7.258;2023-11-19T01:35:03;27.20;;;14.55;;
58446;SDS011;44240;51.840;7.258;2023-11-19T01:37:30;20.63;;;12.60;;
58446;SDS011;44240;51.840;7.258;2023-11-19T01:39:58;22.80;;;13.00;;
58446;SDS011;44240;51.840;7.258;2023-11-19T01:42:25;28.27;;;15.73;;
58446;SDS011;44240;51.840;7.258;2023-11-19T01:44:58;30.83;;;16.08;;
58446;SDS011;44240;51.840;7.258;2023-11-19T01:47:26;29.60;;;15.23;;
58446;SDS011;44240;51.840;7.258;2023-11-19T01:49:54;27.05;;;15.60;;
58446;SDS011;44240;51.840;7.258;2023-11-19T01:52:22;30.48;;;16.77;;
58446;SDS011;44240;51.840;7.258;2023-11-19T01:54:51;26.80;;;15.77;;
58446;SDS011;44240;51.840;7.258;2023-11-19T01:57:21;22.13;;;13.60;;
58446;SDS011;44240;51.840;7.258;2023-11-19T01:59:50;20.88;;;13.02;;
58446;SDS011;44240;51.840;7.258;2023-11-19T02:02:18;24.45;;;13.80;;
58446;SDS011;44240;51.840;7.258;2023-11-19T02:04:49;22.80;;;13.00;;
58446;SDS011;44240;51.840;7.258;2023-11-19T02:07:17;19.38;;;11.32;;
58446;SDS011;44240;51.840;7.258;2023-11-19T02:09:44;15.25;;;9.60;;
58446;SDS011;44240;51.840;7.258;2023-11-19T02:12:11;10.07;;;7.50;;
58446;SDS011;44240;51.840;7.258;2023-11-19T02:14:41;14.00;;;9.02;;
58446;SDS011;44240;51.840;7.258;2023-11-19T02:17:24;14.07;;;7.40;;
58446;SDS011;44240;51.840;7.258;2023-11-19T02:19:55;13.95;;;9.18;;
58446;SDS011;44240;51.840;7.258;2023-11-19T02:22:22;11.15;;;5.97;;
58446;SDS011;44240;51.840;7.258;2023-11-19T02:24:49;11.65;;;7.90;;
58446;SDS011;44240;51.840;7.258;2023-11-19T02:27:26;16.17;;;7.03;;
58446;SDS011;44240;51.840;7.258;2023-11-19T02:30:02;11.68;;;6.43;;
58446;SDS011;44240;51.840;7.258;2023-11-19T02:32:34;9.40;;;6.03;;
58446;SDS011;44240;51.840;7.258;2023-11-19T02:35:01;7.85;;;5.93;;
58446;SDS011;44240;51.840;7.258;2023-11-19T02:37:31;8.60;;;4.50;;
58446;SDS011;44240;51.840;7.258;2023-11-19T02:39:58;10.13;;;4.97;;
58446;SDS011;44240;51.840;7.258;2023-11-19T02:42:35;10.35;;;5.10;;
58446;SDS011;44240;51.840;7.258;2023-11-19T02:45:02;11.43;;;5.50;;
58446;SDS011;44240;51.840;7.258;2023-11-19T02:47:32;6.97;;;3.53;;
58446;SDS011;44240;51.840;7.258;2023-11-19T02:49:59;7.85;;;4.68;;
58446;SDS011;44240;51.840;7.258;2023-11-19T02:52:27;7.97;;;4.57;;
58446;SDS011;44240;51.840;7.258;2023-11-19T02:54:54;9.63;;;4.22;;
58446;SDS011;44240;51.840;7.258;2023-11-19T02:57:22;4.55;;;3.28;;
58446;SDS011;44240;51.840;7.258;2023-11-19T02:59:49;6.07;;;3.50;;
58446;SDS011;44240;51.840;7.258;2023-11-19T03:02:16;9.00;;;4.90;;
58446;SDS011;44240;51.840;7.258;2023-11-19T03:04:44;7.35;;;4.05;;
58446;SDS011;44240;51.840;7.258;2023-11-19T03:07:12;5.80;;;3.75;;
58446;SDS011;44240;51.840;7.258;2023-11-19T03:09:39;10.32;;;3.58;;
58446;SDS011;44240;51.840;7.258;2023-11-19T03:12:06;8.07;;;3.78;;
58446;SDS011;44240;51.840;7.258;2023-11-19T03:14:33;8.10;;;3.78;;
58446;SDS011;44240;51.840;7.258;2023-11-19T03:17:01;11.80;;;3.67;;
58446;SDS011;44240;51.840;7.258;2023-11-19T03:19:28;7.75;;;3.95;;
58446;SDS011;44240;51.840;7.258;2023-11-19T03:21:55;11.98;;;4.00;;
58446;SDS011;44240;51.840;7.258;2023-11-19T03:24:22;7.43;;;3.00;;
58446;SDS011;44240;51.840;7.258;2023-11-19T03:26:49;8.13;;;3.38;;
58446;SDS011;44240;51.840;7.258;2023-11-19T03:29:18;9.73;;;3.55;;
58446;SDS011;44240;51.840;7.258;2023-11-19T03:31:45;5.72;;;3.42;;
58446;SDS011;44240;51.840;7.258;2023-11-19T03:34:12;8.65;;;3.88;;
58446;SDS011;44240;51.840;7.258;2023-11-19T03:36:39;6.20;;;2.65;;
58446;SDS011;44240;51.840;7.258;2023-11-19T03:39:06;9.07;;;2.83;;
58446;SDS011;44240;51.840;7.258;2023-11-19T03:41:33;11.43;;;3.28;;
58446;SDS011;44240;51.840;7.258;2023-11-19T03:44:02;7.75;;;2.75;;
58446;SDS011;44240;51.840;7.258;2023-11-19T03:46:29;10.15;;;3.22;;
58446;SDS011;44240;51.840;7.258;2023-11-19T03:48:56;6.70;;;2.22;;
58446;SDS011;44240;51.840;7.258;2023-11-19T03:51:23;8.52;;;2.25;;
58446;SDS011;44240;51.840;7.258;2023-11-19T03:53:50;10.93;;;3.10;;
58446;SDS011;44240;51.840;7.258;2023-11-19T03:56:16;8.88;;;3.08;;
58446;SDS011;44240;51.840;7.258;2023-11-19T03:58:43;9.05;;;3.70;;
58446;SDS011;44240;51.840;7.258;2023-11-19T04:01:11;9.98;;;2.42;;
58446;SDS011;44240;51.840;7.258;2023-11-19T04:03:39;7.13;;;3.05;;
58446;SDS011;44240;51.840;7.258;2023-11-19T04:06:15;6.60;;;2.42;;
58446;SDS011;44240;51.840;7.258;2023-11-19T04:08:42;11.45;;;2.95;;
58446;SDS011;44240;51.840;7.258;2023-11-19T04:11:10;10.57;;;2.72;;
58446;SDS011;44240;51.840;7.258;2023-11-19T04:13:37;9.80;;;2.78;;
58446;SDS011;44240;51.840;7.258;2023-11-19T04:16:04;10.45;;;2.85;;
58446;SDS011;44240;51.840;7.258;2023-11-19T04:18:31;7.03;;;3.05;;
58446;SDS011;44240;51.840;7.258;2023-11-19T04:21:00;11.75;;;3.13;;
58446;SDS011;44240;51.840;7.258;2023-11-19T04:23:27;6.97;;;2.90;;
58446;SDS011;44240;51.840;7.258;2023-11-19T04:25:54;11.15;;;3.03;;
58446;SDS011;44240;51.840;7.258;2023-11-19T04:28:35;11.70;;;2.83;;
58446;SDS011;44240;51.840;7.258;2023-11-19T04:31:02;10.25;;;3.85;;
58446;SDS011;44240;51.840;7.258;2023-11-19T04:33:29;10.05;;;2.30;;
58446;SDS011;44240;51.840;7.258;2023-11-19T04:35:56;8.77;;;2.85;;
58446;SDS011;44240;51.840;7.258;2023-11-19T04:38:23;11.85;;;3.58;;
58446;SDS011;44240;51.840;7.258;2023-11-19T04:40:50;10.15;;;2.97;;
58446;SDS011;44240;51.840;7.258;2023-11-19T04:43:17;9.98;;;3.45;;
58446;SDS011;44240;51.840;7.258;2023-11-19T04:45:44;9.77;;;3.00;;
58446;SDS011;44240;51.840;7.258;2023-11-19T04:48:11;9.38;;;2.83;;
58446;SDS011;44240;51.840;7.258;2023-11-19T04:50:38;9.98;;;3.15;;
58446;SDS011;44240;51.840;7.258;2023-11-19T04:53:05;11.35;;;3.17;;
58446;SDS011;44240;51.840;7.258;2023-11-19T04:55:32;13.13;;;3.20;;
58446;SDS011;44240;51.840;7.258;2023-11-19T04:57:59;12.90;;;4.32;;
58446;SDS011;44240;51.840;7.258;2023-11-19T05:00:26;21.75;;;5.00;;
58446;SDS011;44240;51.840;7.258;2023-11-19T05:02:52;12.30;;;3.90;;
58446;SDS011;44240;51.840;7.258;2023-11-19T05:05:19;12.93;;;4.10;;
58446;SDS011;44240;51.840;7.258;2023-11-19T05:07:46;5.18;;;2.85;;
58446;SDS011;44240;51.840;7.258;2023-11-19T05:10:13;17.88;;;4.07;;
58446;SDS011;44240;51.840;7.258;2023-11-19T05:12:40;12.82;;;4.10;;
58446;SDS011;44240;51.840;7.258;2023-11-19T05:15:07;15.52;;;3.85;;
58446;SDS011;44240;51.840;7.258;2023-11-19T05:17:34;13.13;;;3.78;;
58446;SDS011;44240;51.840;7.258;2023-11-19T05:20:03;14.00;;;3.75;;
58446;SDS011;44240;51.840;7.258;2023-11-19T05:22:31;11.95;;;3.17;;
58446;SDS011;44240;51.840;7.258;2023-11-19T05:24:58;18.48;;;3.78;;
58446;SDS011;44240;51.840;7.258;2023-11-19T05:27:25;18.00;;;3.92;;
58446;SDS011;44240;51.840;7.258;2023-11-19T05:29:53;9.68;;;2.67;;
58446;SDS011;44240;51.840;7.258;2023-11-19T05:32:20;21.45;;;3.33;;
58446;SDS011;44240;51.840;7.258;2023-11-19T05:34:47;13.23;;;2.40;;
58446;SDS011;44240;51.840;7.258;2023-11-19T05:37:16;14.10;;;3.03;;
58446;SDS011;44240;51.840;7.258;2023-11-19T05:39:44;10.73;;;2.10;;
58446;SDS011;44240;51.840;7.258;2023-11-19T05:42:11;9.50;;;3.10;;
58446;SDS011;44240;51.840;7.258;2023-11-19T05:44:38;18.05;;;3.05;;
58446;SDS011;44240;51.840;7.258;2023-11-19T05:47:06;13.68;;;3.03;;
58446;SDS011;44240;51.840;7.258;2023-11-19T05:49:33;15.32;;;3.75;;
58446;SDS011;44240;51.840;7.258;2023-11-19T05:52:00;11.60;;;3.10;;
58446;SDS011;44240;51.840;7.258;2023-11-19T05:54:29;16.05;;;3.50;;
58446;SDS011;44240;51.840;7.258;2023-11-19T05:56:57;17.48;;;3.20;;
58446;SDS011;44240;51.840;7.258;2023-11-19T05:59:24;12.77;;;3.53;;
58446;SDS011;44240;51.840;7.258;2023-11-19T06:01:51;17.55;;;2.88;;
58446;SDS011;44240;51.840;7.258;2023-11-19T06:04:18;5.00;;;1.30;;
58446;SDS011;44240;51.840;7.258;2023-11-19T06:06:44;7.95;;;2.75;;
58446;SDS011;44240;51.840;7.258;2023-11-19T06:09:11;13.93;;;2.42;;
58446;SDS011;44240;51.840;7.258;2023-11-19T06:11:39;15.55;;;3.17;;
58446;SDS011;44240;51.840;7.258;2023-11-19T06:14:06;15.10;;;3.10;;
58446;SDS011;44240;51.840;7.258;2023-11-19T06:16:33;19.10;;;3.55;;
58446;SDS011;44240;51.840;7.258;2023-11-19T06:19:00;16.90;;;2.78;;
58446;SDS011;44240;51.840;7.258;2023-11-19T06:21:27;16.77;;;3.13;;
58446;SDS011;44240;51.840;7.258;2023-11-19T06:23:53;9.60;;;1.65;;
58446;SDS011;44240;51.840;7.258;2023-11-19T06:26:20;18.88;;;2.88;;
58446;SDS011;44240;51.840;7.258;2023-11-19T06:28:48;15.10;;;2.95;;
58446;SDS011;44240;51.840;7.258;2023-11-19T06:31:15;13.52;;;3.40;;
58446;SDS011;44240;51.840;7.258;2023-11-19T06:33:42;17.33;;;3.20;;
58446;SDS011;44240;51.840;7.258;2023-11-19T06:36:09;13.68;;;3.08;;
58446;SDS011;44240;51.840;7.258;2023-11-19T06:38:36;16.38;;;3.60;;
58446;SDS011;44240;51.840;7.258;2023-11-19T06:41:06;20.77;;;4.20;;
58446;SDS011;44240;51.840;7.258;2023-11-19T06:43:35;16.33;;;4.30;;
58446;SDS011;44240;51.840;7.258;2023-11-19T06:46:05;12.93;;;3.08;;
58446;SDS011;44240;51.840;7.258;2023-11-19T06:48:40;13.30;;;3.63;;
58446;SDS011;44240;51.840;7.258;2023-11-19T06:51:09;15.20;;;4.05;;
58446;SDS011;44240;51.840;7.258;2023-11-19T06:53:36;17.77;;;3.53;;
58446;SDS011;44240;51.840;7.258;2023-11-19T06:56:03;17.23;;;3.53;;
58446;SDS011;44240;51.840;7.258;2023-11-19T06:58:36;15.82;;;3.58;;
58446;SDS011;44240;51.840;7.258;2023-11-19T07:01:03;15.52;;;3.70;;
58446;SDS011;44240;51.840;7.258;2023-11-19T07:03:32;13.55;;;3.42;;
58446;SDS011;44240;51.840;7.258;2023-11-19T07:06:01;17.02;;;3.92;;
58446;SDS011;44240;51.840;7.258;2023-11-19T07:08:30;13.23;;;3.10;;
58446;SDS011;44240;51.840;7.258;2023-11-19T07:10:57;15.85;;;3.60;;
58446;SDS011;44240;51.840;7.258;2023-11-19T07:13:24;14.80;;;3.15;;
58446;SDS011;44240;51.840;7.258;2023-11-19T07:15:51;16.33;;;4.05;;
58446;SDS011;44240;51.840;7.258;2023-11-19T07:18:18;15.95;;;4.03;;
58446;SDS011;44240;51.840;7.258;2023-11-19T07:20:44;10.60;;;2.60;;
58446;SDS011;44240;51.840;7.258;2023-11-19T07:23:12;15.88;;;2.88;;
58446;SDS011;44240;51.840;7.258;2023-11-19T07:25:41;9.65;;;2.65;;
58446;SDS011;44240;51.840;7.258;2023-11-19T07:28:08;17.80;;;4.22;;
58446;SDS011;44240;51.840;7.258;2023-11-19T07:30:36;22.50;;;3.97;;
58446;SDS011;44240;51.840;7.258;2023-11-19T07:33:05;21.33;;;4.70;;
58446;SDS011;44240;51.840;7.258;2023-11-19T07:35:31;11.18;;;2.83;;
58446;SDS011;44240;51.840;7.258;2023-11-19T07:37:58;21.02;;;4.78;;
58446;SDS011;44240;51.840;7.258;2023-11-19T07:40:25;14.95;;;4.10;;
58446;SDS011;44240;51.840;7.258;2023-11-19T07:42:53;18.05;;;3.88;;
58446;SDS011;44240;51.840;7.258;2023-11-19T07:45:20;18.20;;;4.25;;
58446;SDS011;44240;51.840;7.258;2023-11-19T07:47:47;22.35;;;3.22;;
58446;SDS011;44240;51.840;7.258;2023-11-19T07:50:14;12.77;;;3.95;;
58446;SDS011;44240;51.840;7.258;2023-11-19T07:52:43;12.05;;;2.95;;
58446;SDS011;44240;51.840;7.258;2023-11-19T07:55:09;20.80;;;4.10;;
58446;SDS011;44240;51.840;7.258;2023-11-19T07:57:36;13.45;;;3.03;;
58446;SDS011;44240;51.840;7.258;2023-11-19T08:00:03;14.80;;;3.15;;
58446;SDS011;44240;51.840;7.258;2023-11-19T08:02:38;13.98;;;3.20;;
58446;SDS011;44240;51.840;7.258;2023-11-19T08:05:05;14.95;;;2.85;;
58446;SDS011;44240;51.840;7.258;2023-11-19T08:07:32;18.23;;;4.10;;
58446;SDS011;44240;51.840;7.258;2023-11-19T08:09:59;13.55;;;2.80;;
58446;SDS011;44240;51.840;7.258;2023-11-19T08:12:26;17.52;;;3.00;;
58446;SDS011;44240;51.840;7.258;2023-11-19T08:14:53;4.97;;;2.05;;
58446;SDS011;44240;51.840;7.258;2023-11-19T08:17:20;11.27;;;3.13;;
58446;SDS011;44240;51.840;7.258;2023-11-19T08:19:49;16.00;;;3.70;;
58446;SDS011;44240;51.840;7.258;2023-11-19T08:22:17;14.55;;;3.85;;
58446;SDS011;44240;51.840;7.258;2023-11-19T08:24:44;20.58;;;3.78;;
58446;SDS011;44240;51.840;7.258;2023-11-19T08:27:10;23.42;;;3.28;;
58446;SDS011;44240;51.840;7.258;2023-11-19T08:29:37;18.50;;;3.15;;
58446;SDS011;44240;51.840;7.258;2023-11-19T08:32:04;16.98;;;3.42;;
58446;SDS011;44240;51.840;7.258;2023-11-19T08:34:32;21.23;;;3.97;;
58446;SDS011;44240;51.840;7.258;2023-11-19T08:36:59;19.40;;;3.75;;
58446;SDS011;44240;51.840;7.258;2023-11-19T08:39:26;14.32;;;3.75;;
58446;SDS011;44240;51.840;7.258;2023-11-19T08:41:53;13.45;;;3.03;;
58446;SDS011;44240;51.840;7.258;2023-11-19T08:44:21;9.23;;;3.25;;
58446;SDS011;44240;51.840;7.258;2023-11-19T08:46:48;18.48;;;3.63;;
58446;SDS011;44240;51.840;7.258;2023-11-19T08:49:15;18.17;;;3.50;;
58446;SDS011;44240;51.840;7.258;2023-11-19T08:51:42;16.10;;;3.25;;
58446;SDS011;44240;51.840;7.258;2023-11-19T08:54:09;14.32;;;2.47;;
58446;SDS011;44240;51.840;7.258;2023-11-19T08:56:37;21.55;;;3.80;;
58446;SDS011;44240;51.840;7.258;2023-11-19T08:59:05;19.13;;;3.72;;
58446;SDS011;44240;51.840;7.258;2023-11-19T09:01:32;12.02;;;2.50;;
58446;SDS011;44240;51.840;7.258;2023-11-19T09:03:59;9.13;;;1.98;;
58446;SDS011;44240;51.840;7.258;2023-11-19T09:06:26;17.08;;;3.00;;
58446;SDS011;44240;51.840;7.258;2023-11-19T09:08:53;22.85;;;4.85;;
58446;SDS011;44240;51.840;7.258;2023-11-19T09:11:24;21.17;;;3.85;;
58446;SDS011;44240;51.840;7.258;2023-11-19T09:13:51;12.38;;;3.50;;
58446;SDS011;44240;51.840;7.258;2023-11-19T09:16:18;17.75;;;3.28;;
58446;SDS011;44240;51.840;7.258;2023-11-19T09:18:45;12.32;;;2.45;;
58446;SDS011;44240;51.840;7.258;2023-11-19T09:21:11;14.15;;;3.05;;
58446;SDS011;44240;51.840;7.258;2023-11-19T09:23:38;19.73;;;3.65;;
58446;SDS011;44240;51.840;7.258;2023-11-19T09:26:06;15.27;;;2.88;;
58446;SDS011;44240;51.840;7.258;2023-11-19T09:28:35;13.13;;;3.15;;
58446;SDS011;44240;51.840;7.258;2023-11-19T09:31:02;17.42;;;4.63;;
58446;SDS011;44240;51.840;7.258;2023-11-19T09:33:32;14.45;;;2.80;;
58446;SDS011;44240;51.840;7.258;2023-11-19T09:36:01;12.52;;;3.53;;
58446;SDS011;44240;51.840;7.258;2023-11-19T09:38:27;14.52;;;3.03;;
58446;SDS011;44240;51.840;7.258;2023-11-19T09:40:54;21.25;;;5.78;;
58446;SDS011;44240;51.840;7.258;2023-11-19T09:43:21;12.95;;;2.67;;
58446;SDS011;44240;51.840;7.258;2023-11-19T09:45:49;12.18;;;3.10;;
58446;SDS011;44240;51.840;7.258;2023-11-19T09:48:17;23.70;;;4.57;;
58446;SDS011;44240;51.840;7.258;2023-11-19T09:50:48;10.13;;;3.08;;
58446;SDS011;44240;51.840;7.258;2023-11-19T09:53:15;15.57;;;2.90;;
58446;SDS011;44240;51.840;7.258;2023-11-19T09:55:42;12.55;;;2.63;;
58446;SDS011;44240;51.840;7.258;2023-11-19T09:58:09;14.90;;;2.58;;
58446;SDS011;44240;51.840;7.258;2023-11-19T10:00:40;16.27;;;3.58;;
58446;SDS011;44240;51.840;7.258;2023-11-19T10:03:07;10.85;;;2.78;;
58446;SDS011;44240;51.840;7.258;2023-11-19T10:05:37;13.60;;;3.17;;
58446;SDS011;44240;51.840;7.258;2023-11-19T10:08:05;11.95;;;2.85;;
58446;SDS011;44240;51.840;7.258;2023-11-19T10:10:33;17.58;;;3.08;;
58446;SDS011;44240;51.840;7.258;2023-11-19T10:13:00;18.80;;;3.72;;
58446;SDS011;44240;51.840;7.258;2023-11-19T10:15:27;17.67;;;3.67;;
58446;SDS011;44240;51.840;7.258;2023-11-19T10:17:57;19.83;;;3.42;;
58446;SDS011;44240;51.840;7.258;2023-11-19T10:20:24;18.20;;;4.63;;
58446;SDS011;44240;51.840;7.258;2023-11-19T10:22:54;22.42;;;3.58;;
58446;SDS011;44240;51.840;7.258;2023-11-19T10:25:22;18.35;;;4.10;;
58446;SDS011;44240;51.840;7.258;2023-11-19T10:27:53;19.83;;;3.80;;
58446;SDS011;44240;51.840;7.258;2023-11-19T10:30:24;12.73;;;2.75;;
58446;SDS011;44240;51.840;7.258;2023-11-19T10:33:05;14.48;;;3.08;;
58446;SDS011;44240;51.840;7.258;2023-11-19T10:38:27;15.80;;;3.60;;
58446;SDS011;44240;51.840;7.258;2023-11-19T10:40:54;14.15;;;3.53;;
58446;SDS011;44240;51.840;7.258;2023-11-19T10:43:21;13.52;;;2.92;;
58446;SDS011;44240;51.840;7.258;2023-11-19T10:45:49;17.92;;;3.72;;
58446;SDS011;44240;51.840;7.258;2023-11-19T10:48:16;14.38;;;3.30;;
58446;SDS011;44240;51.840;7.258;2023-11-19T10:50:44;14.30;;;3.40;;
58446;SDS011;44240;51.840;7.258;2023-11-19T10:53:12;17.10;;;2.70;;
58446;SDS011;44240;51.840;7.258;2023-11-19T10:55:39;12.63;;;3.25;;
58446;SDS011;44240;51.840;7.258;2023-11-19T10:58:10;14.60;;;3.25;;
58446;SDS011;44240;51.840;7.258;2023-11-19T11:00:48;22.15;;;4.85;;
58446;SDS011;44240;51.840;7.258;2023-11-19T11:03:21;18.48;;;3.58;;
58446;SDS011;44240;51.840;7.258;2023-11-19T11:05:51;16.45;;;3.13;;
58446;SDS011;44240;51.840;7.258;2023-11-19T11:08:19;13.02;;;2.78;;
58446;SDS011;44240;51.840;7.258;2023-11-19T11:13:22;17.58;;;3.53;;
58446;SDS011;44240;51.840;7.258;2023-11-19T11:15:51;13.95;;;2.88;;
58446;SDS011;44240;51.840;7.258;2023-11-19T11:18:20;26.73;;;3.65;;
58446;SDS011;44240;51.840;7.258;2023-11-19T11:20:46;23.13;;;4.70;;
58446;SDS011;44240;51.840;7.258;2023-11-19T11:23:34;18.90;;;3.58;;
58446;SDS011;44240;51.840;7.258;2023-11-19T11:34:25;17.27;;;5.43;;
58446;SDS011;44240;51.840;7.258;2023-11-19T11:37:26;17.58;;;3.20;;
58446;SDS011;44240;51.840;7.258;2023-11-19T11:40:02;12.13;;;3.00;;
58446;SDS011;44240;51.840;7.258;2023-11-19T11:44:07;22.60;;;4.43;;
58446;SDS011;44240;51.840;7.258;2023-11-19T11:49:03;18.80;;;3.90;;
58446;SDS011;44240;51.840;7.258;2023-11-19T11:54:10;11.68;;;2.80;;
58446;SDS011;44240;51.840;7.258;2023-11-19T11:57:06;14.73;;;3.15;;
58446;SDS011;44240;51.840;7.258;2023-11-19T11:59:49;17.83;;;3.47;;
58446;SDS011;44240;51.840;7.258;2023-11-19T12:02:17;15.45;;;3.33;;
58446;SDS011;44240;51.840;7.258;2023-11-19T12:04:48;7.65;;;3.33;;
58446;SDS011;44240;51.840;7.258;2023-11-19T12:07:21;19.88;;;3.63;;
58446;SDS011;44240;51.840;7.258;2023-11-19T12:09:51;12.85;;;2.60;;
58446;SDS011;44240;51.840;7.258;2023-11-19T12:12:39;16.65;;;3.20;;
58446;SDS011;44240;51.840;7.258;2023-11-19T12:15:08;17.58;;;3.42;;
58446;SDS011;44240;51.840;7.258;2023-11-19T12:17:41;11.10;;;2.55;;
58446;SDS011;44240;51.840;7.258;2023-11-19T12:20:11;15.15;;;3.25;;
58446;SDS011;44240;51.840;7.258;2023-11-19T12:22:38;13.32;;;3.15;;
58446;SDS011;44240;51.840;7.258;2023-11-19T12:25:06;15.10;;;3.15;;
58446;SDS011;44240;51.840;7.258;2023-11-19T12:27:35;13.82;;;3.50;;
58446;SDS011;44240;51.840;7.258;2023-11-19T12:30:03;12.45;;;2.80;;
58446;SDS011;44240;51.840;7.258;2023-11-19T12:32:43;11.82;;;2.97;;
58446;SDS011;44240;51.840;7.258;2023-11-19T12:37:48;17.38;;;3.20;;
58446;SDS011;44240;51.840;7.258;2023-11-19T12:40:21;12.85;;;2.65;;
58446;SDS011;44240;51.840;7.258;2023-11-19T12:42:48;9.27;;;2.08;;
58446;SDS011;44240;51.840;7.258;2023-11-19T12:45:16;12.93;;;2.45;;
58446;SDS011;44240;51.840;7.258;2023-11-19T12:47:43;13.18;;;3.42;;
58446;SDS011;44240;51.840;7.258;2023-11-19T12:50:10;10.52;;;3.40;;
58446;SDS011;44240;51.840;7.258;2023-11-19T12:52:37;14.80;;;2.75;;
58446;SDS011;44240;51.840;7.258;2023-11-19T12:55:05;12.60;;;2.85;;
58446;SDS011;44240;51.840;7.258;2023-11-19T12:57:53;11.95;;;2.80;;
58446;SDS011;44240;51.840;7.258;2023-11-19T13:00:21;14.57;;;3.05;;
58446;SDS011;44240;51.840;7.258;2023-11-19T13:02:51;12.10;;;2.65;;
58446;SDS011;44240;51.840;7.258;2023-11-19T13:05:23;9.48;;;2.53;;
58446;SDS011;44240;51.840;7.258;2023-11-19T13:08:07;8.25;;;2.80;;
58446;SDS011;44240;51.840;7.258;2023-11-19T13:13:17;9.75;;;2.40;;
58446;SDS011;44240;51.840;7.258;2023-11-19T13:15:44;11.45;;;2.33;;
58446;SDS011;44240;51.840;7.258;2023-11-19T13:18:12;9.02;;;1.92;;
58446;SDS011;44240;51.840;7.258;2023-11-19T13:20:40;17.17;;;3.40;;
58446;SDS011;44240;51.840;7.258;2023-11-19T13:23:07;14.02;;;2.25;;
58446;SDS011;44240;51.840;7.258;2023-11-19T13:25:34;11.00;;;2.40;;
58446;SDS011;44240;51.840;7.258;2023-11-19T13:28:00;10.38;;;1.75;;
58446;SDS011;44240;51.840;7.258;2023-11-19T13:30:28;12.68;;;2.38;;
58446;SDS011;44240;51.840;7.258;2023-11-19T13:32:55;10.82;;;2.65;;
58446;SDS011;44240;51.840;7.258;2023-11-19T13:35:22;7.18;;;1.92;;
58446;SDS011;44240;51.840;7.258;2023-11-19T13:37:49;8.82;;;2.00;;
58446;SDS011;44240;51.840;7.258;2023-11-19T13:40:17;13.90;;;2.75;;
58446;SDS011;44240;51.840;7.258;2023-11-19T13:42:45;11.20;;;2.33;;
58446;SDS011;44240;51.840;7.258;2023-11-19T13:45:12;13.93;;;2.20;;
58446;SDS011;44240;51.840;7.258;2023-11-19T13:47:44;8.05;;;2.13;;
58446;SDS011;44240;51.840;7.258;2023-11-19T13:50:12;12.70;;;1.98;;
58446;SDS011;44240;51.840;7.258;2023-11-19T13:52:41;9.32;;;3.55;;
58446;SDS011;44240;51.840;7.258;2023-11-19T13:55:11;5.25;;;1.88;;
58446;SDS011;44240;51.840;7.258;2023-11-19T13:57:38;12.57;;;2.47;;
58446;SDS011;44240;51.840;7.258;2023-11-19T14:00:07;10.25;;;1.35;;
58446;SDS011;44240;51.840;7.258;2023-11-19T14:02:39;8.15;;;2.00;;
58446;SDS011;44240;51.840;7.258;2023-11-19T14:05:07;8.23;;;2.10;;
58446;SDS011;44240;51.840;7.258;2023-11-19T14:07:34;9.63;;;3.42;;
58446;SDS011;44240;51.840;7.258;2023-11-19T14:10:01;9.45;;;2.30;;
58446;SDS011;44240;51.840;7.258;2023-11-19T14:12:29;10.43;;;2.85;;
58446;SDS011;44240;51.840;7.258;2023-11-19T14:14:56;11.73;;;2.03;;
58446;SDS011;44240;51.840;7.258;2023-11-19T14:17:23;12.82;;;2.55;;
58446;SDS011;44240;51.840;7.258;2023-11-19T14:19:51;16.50;;;3.55;;
58446;SDS011;44240;51.840;7.258;2023-11-19T14:22:18;9.57;;;2.33;;
58446;SDS011;44240;51.840;7.258;2023-11-19T14:24:45;6.90;;;1.95;;
58446;SDS011;44240;51.840;7.258;2023-11-19T14:27:11;6.97;;;2.08;;
58446;SDS011;44240;51.840;7.258;2023-11-19T14:29:38;8.88;;;2.22;;
58446;SDS011;44240;51.840;7.258;2023-11-19T14:32:06;9.32;;;2.10;;
58446;SDS011;44240;51.840;7.258;2023-11-19T14:34:33;13.95;;;2.90;;
58446;SDS011;44240;51.840;7.258;2023-11-19T14:37:00;8.55;;;2.35;;
58446;SDS011;44240;51.840;7.258;2023-11-19T14:39:27;9.65;;;2.40;;
58446;SDS011;44240;51.840;7.258;2023-11-19T14:41:55;10.27;;;2.60;;
58446;SDS011;44240;51.840;7.258;2023-11-19T14:44:24;13.73;;;3.13;;
58446;SDS011;44240;51.840;7.258;2023-11-19T14:46:51;14.00;;;2.80;;
58446;SDS011;44240;51.840;7.258;2023-11-19T14:49:18;9.65;;;2.70;;
58446;SDS011;44240;51.840;7.258;2023-11-19T14:51:45;13.20;;;3.00;;
58446;SDS011;44240;51.840;7.258;2023-11-19T14:54:14;12.75;;;2.75;;
58446;SDS011;44240;51.840;7.258;2023-11-19T14:56:42;12.60;;;2.63;;
58446;SDS011;44240;51.840;7.258;2023-11-19T14:59:09;14.65;;;2.70;;
58446;SDS011;44240;51.840;7.258;2023-11-19T15:01:35;10.27;;;2.65;;
58446;SDS011;44240;51.840;7.258;2023-11-19T15:04:02;15.43;;;2.67;;
58446;SDS011;44240;51.840;7.258;2023-11-19T15:06:32;13.43;;;2.85;;
58446;SDS011;44240;51.840;7.258;2023-11-19T15:09:00;13.30;;;2.47;;